createdAt,value
2023-01-08T00:00:29.778Z,12.90
2023-01-08T00:03:22.995Z,14.80
2023-01-08T00:05:56.476Z,13.00
2023-01-08T00:08:29.242Z,13.10
2023-01-08T00:11:03.155Z,13.10
2023-01-08T00:13:36.286Z,13.30
2023-01-08T00:16:15.518Z,13.30
2023-01-08T00:18:49.590Z,14.50
2023-01-08T00:21:22.521Z,14.00
2023-01-08T00:23:55.531Z,14.10
2023-01-08T00:26:29.155Z,14.40
2023-01-08T00:29:02.679Z,14.50
2023-01-08T00:31:35.702Z,13.60
2023-01-08T00:34:08.812Z,16.20
2023-01-08T00:36:41.752Z,14.00
2023-01-08T00:39:15.087Z,13.70
2023-01-08T00:41:50.188Z,14.00
2023-01-08T00:44:23.489Z,13.30
2023-01-08T00:46:56.733Z,14.60
2023-01-08T00:49:29.976Z,13.80
2023-01-08T00:52:03.277Z,13.30
2023-01-08T00:54:36.522Z,12.10
2023-01-08T00:57:09.559Z,12.90
2023-01-08T00:59:43.011Z,14.10
2023-01-08T01:02:16.212Z,14.80
2023-01-08T01:04:49.821Z,15.00
2023-01-08T01:07:22.723Z,14.30
2023-01-08T01:09:55.883Z,14.30
2023-01-08T01:12:28.900Z,14.70
2023-01-08T01:15:02.132Z,12.70
2023-01-08T01:17:35.681Z,13.70
2023-01-08T01:20:10.734Z,14.20
2023-01-08T01:22:44.108Z,15.50
2023-01-08T01:25:17.572Z,16.40
2023-01-08T01:27:50.847Z,17.90
2023-01-08T01:30:24.257Z,14.60
2023-01-08T01:32:57.436Z,14.40
2023-01-08T01:35:30.695Z,14.40
2023-01-08T01:38:03.881Z,14.40
2023-01-08T01:40:36.841Z,15.30
2023-01-08T01:43:14.142Z,13.30
2023-01-08T01:45:47.109Z,14.30
2023-01-08T01:48:20.063Z,14.40
2023-01-08T01:50:55.087Z,14.90
2023-01-08T01:53:33.225Z,14.10
2023-01-08T01:56:07.822Z,12.90
2023-01-08T01:58:41.083Z,13.70
2023-01-08T02:01:14.740Z,12.60
2023-01-08T02:03:47.698Z,13.90
2023-01-08T02:06:37.739Z,15.20
2023-01-08T02:09:43.945Z,14.30
2023-01-08T02:12:30.608Z,15.90
2023-01-08T02:15:22.842Z,14.90
2023-01-08T02:20:48.397Z,13.80
2023-01-08T02:23:51.011Z,15.10
2023-01-08T02:26:37.888Z,13.90
2023-01-08T02:29:21.127Z,13.60
2023-01-08T02:31:54.267Z,14.50
2023-01-08T02:34:28.028Z,13.40
2023-01-08T02:37:02.417Z,14.00
2023-01-08T02:40:12.805Z,14.10
2023-01-08T02:43:18.413Z,16.20
2023-01-08T02:46:01.482Z,13.60
2023-01-08T02:49:00.773Z,16.10
2023-01-08T02:51:43.318Z,15.00
2023-01-08T02:54:27.753Z,14.30
2023-01-08T02:57:10.836Z,14.80
2023-01-08T02:59:45.758Z,14.50
2023-01-08T03:02:19.632Z,14.00
2023-01-08T03:05:04.063Z,12.50
2023-01-08T03:07:37.689Z,14.40
2023-01-08T03:10:11.569Z,13.60
2023-01-08T03:12:57.414Z,14.50
2023-01-08T03:15:45.179Z,13.70
2023-01-08T03:18:22.460Z,15.90
2023-01-08T03:20:55.910Z,13.80
2023-01-08T03:23:30.829Z,14.90
2023-01-08T03:26:05.739Z,14.40
2023-01-08T03:28:43.851Z,14.50
2023-01-08T03:31:19.462Z,14.50
2023-01-08T03:33:53.308Z,14.30
2023-01-08T03:36:30.970Z,15.00
2023-01-08T03:39:13.399Z,16.70
2023-01-08T03:41:46.547Z,16.10
2023-01-08T03:44:19.899Z,16.30
2023-01-08T03:46:56.398Z,15.40
2023-01-08T03:49:31.526Z,14.30
2023-01-08T03:52:04.169Z,14.20
2023-01-08T03:54:38.756Z,13.00
2023-01-08T03:57:11.387Z,13.50
2023-01-08T03:59:44.589Z,14.00
2023-01-08T04:02:17.996Z,14.80
2023-01-08T04:04:51.232Z,14.60
2023-01-08T04:07:24.439Z,16.60
2023-01-08T04:09:57.484Z,14.80
2023-01-08T04:12:30.520Z,16.00
2023-01-08T04:15:03.678Z,15.50
2023-01-08T04:17:36.427Z,15.00
2023-01-08T04:20:10.618Z,14.80
2023-01-08T04:22:43.679Z,14.80
2023-01-08T04:25:17.258Z,13.90
2023-01-08T04:27:50.703Z,14.20
2023-01-08T04:30:24.257Z,14.70
2023-01-08T04:32:56.961Z,16.10
2023-01-08T04:35:29.920Z,14.50
2023-01-08T04:38:02.893Z,17.20
2023-01-08T04:40:38.852Z,14.00
2023-01-08T04:43:11.911Z,16.30
2023-01-08T04:45:44.942Z,16.60
2023-01-08T04:48:18.054Z,13.00
2023-01-08T04:50:51.684Z,16.00
2023-01-08T04:53:25.064Z,15.30
2023-01-08T04:55:57.907Z,15.70
2023-01-08T04:58:30.901Z,18.20
2023-01-08T05:01:11.496Z,16.50
2023-01-08T05:03:44.364Z,16.60
2023-01-08T05:06:17.406Z,15.80
2023-01-08T05:08:50.509Z,17.10
2023-01-08T05:11:23.602Z,17.20
2023-01-08T05:13:57.257Z,15.50
2023-01-08T05:16:30.198Z,14.90
2023-01-08T05:19:03.123Z,16.90
2023-01-08T05:21:36.481Z,19.20
2023-01-08T05:24:10.479Z,16.80
2023-01-08T05:26:43.512Z,20.80
2023-01-08T05:29:16.973Z,17.60
2023-01-08T05:31:49.868Z,20.20
2023-01-08T05:34:22.585Z,17.00
2023-01-08T05:36:55.780Z,17.50
2023-01-08T05:39:28.675Z,16.00
2023-01-08T05:42:01.686Z,16.90
2023-01-08T05:44:34.348Z,17.10
2023-01-08T05:47:07.461Z,18.20
2023-01-08T05:49:40.279Z,17.00
2023-01-08T05:52:13.546Z,15.90
2023-01-08T05:54:46.352Z,16.00
2023-01-08T05:57:19.534Z,14.30
2023-01-08T05:59:52.217Z,13.70
2023-01-08T06:02:25.365Z,13.60
2023-01-08T06:04:58.337Z,12.90
2023-01-08T06:07:34.290Z,11.90
2023-01-08T06:10:07.468Z,14.00
2023-01-08T06:12:40.345Z,11.60
2023-01-08T06:15:13.833Z,15.10
2023-01-08T06:17:47.433Z,13.20
2023-01-08T06:20:20.274Z,12.80
2023-01-08T06:22:55.241Z,11.20
2023-01-08T06:25:28.781Z,12.60
2023-01-08T06:28:01.510Z,11.10
2023-01-08T06:30:34.565Z,12.10
2023-01-08T06:33:07.271Z,11.90
2023-01-08T06:35:39.938Z,10.70
2023-01-08T06:38:13.016Z,10.70
2023-01-08T06:40:45.631Z,13.00
2023-01-08T06:43:19.091Z,11.60
2023-01-08T06:46:02.822Z,6.20
2023-01-08T06:48:35.693Z,8.70
2023-01-08T06:51:08.971Z,9.20
2023-01-08T06:53:41.787Z,8.70
2023-01-08T06:56:14.875Z,9.20
2023-01-08T06:58:47.874Z,8.30
2023-01-08T07:01:23.480Z,8.70
2023-01-08T07:03:57.289Z,7.80
2023-01-08T07:06:29.718Z,8.60
2023-01-08T07:09:02.248Z,9.80
2023-01-08T07:11:35.652Z,8.00
2023-01-08T07:14:08.585Z,8.20
2023-01-08T07:16:41.291Z,8.00
2023-01-08T07:19:14.291Z,10.30
2023-01-08T07:21:47.242Z,8.50
2023-01-08T07:24:20.207Z,9.20
2023-01-08T07:26:53.313Z,8.40
2023-01-08T07:29:26.031Z,10.10
2023-01-08T07:31:59.002Z,10.70
2023-01-08T07:34:31.777Z,7.20
2023-01-08T07:37:04.997Z,8.30
2023-01-08T07:39:37.643Z,8.40
2023-01-08T07:42:10.647Z,8.70
2023-01-08T07:44:43.568Z,9.20
2023-01-08T07:47:16.215Z,10.10
2023-01-08T07:49:48.753Z,8.30
2023-01-08T07:52:21.329Z,10.20
2023-01-08T07:54:54.009Z,8.40
2023-01-08T07:57:26.593Z,9.70
2023-01-08T07:59:59.749Z,9.50
2023-01-08T08:02:33.404Z,9.10
2023-01-08T08:05:07.256Z,10.80
2023-01-08T08:07:39.939Z,8.80
2023-01-08T08:10:13.384Z,10.50
2023-01-08T08:12:47.636Z,9.80
2023-01-08T08:15:20.570Z,8.90
2023-01-08T08:17:53.522Z,7.60
2023-01-08T08:20:26.960Z,9.70
2023-01-08T08:23:10.250Z,8.40
2023-01-08T08:25:43.924Z,11.20
2023-01-08T08:28:16.648Z,10.30
2023-01-08T08:30:49.653Z,8.90
2023-01-08T08:33:22.569Z,9.00
2023-01-08T08:35:55.489Z,9.30
2023-01-08T08:38:28.550Z,10.20
2023-01-08T08:41:01.747Z,9.40
2023-01-08T08:43:35.084Z,8.50
2023-01-08T08:46:08.241Z,10.40
2023-01-08T08:48:41.455Z,9.20
2023-01-08T08:51:14.760Z,9.60
2023-01-08T08:53:47.709Z,8.40
2023-01-08T08:56:20.662Z,11.00
2023-01-08T08:58:53.603Z,9.50
2023-01-08T09:01:26.657Z,8.40
2023-01-08T09:03:59.822Z,12.10
2023-01-08T09:06:32.688Z,9.50
2023-01-08T09:09:05.531Z,8.60
2023-01-08T09:11:38.474Z,9.90
2023-01-08T09:14:11.590Z,9.70
2023-01-08T09:16:44.948Z,9.00
2023-01-08T09:19:17.891Z,12.00
2023-01-08T09:21:51.515Z,8.40
2023-01-08T09:24:24.328Z,9.70
2023-01-08T09:26:57.689Z,10.10
2023-01-08T09:29:30.464Z,9.50
2023-01-08T09:32:03.465Z,9.70
2023-01-08T09:34:38.686Z,11.50
2023-01-08T09:37:11.299Z,11.90
2023-01-08T09:39:48.109Z,11.20
2023-01-08T09:42:29.901Z,12.60
2023-01-08T09:45:05.052Z,10.40
2023-01-08T09:47:44.915Z,8.60
2023-01-08T09:50:17.689Z,11.00
2023-01-08T09:52:50.381Z,10.10
2023-01-08T09:55:24.158Z,12.60
2023-01-08T09:57:57.812Z,9.60
2023-01-08T10:00:33.901Z,8.00
2023-01-08T10:03:08.043Z,10.70
2023-01-08T10:05:42.437Z,9.50
2023-01-08T10:08:17.076Z,12.40
2023-01-08T10:10:50.434Z,11.10
2023-01-08T10:13:23.410Z,9.10
2023-01-08T10:15:56.369Z,9.20
2023-01-08T10:18:30.839Z,11.00
2023-01-08T10:21:03.803Z,11.70
2023-01-08T10:23:37.004Z,12.10
2023-01-08T10:26:10.119Z,9.60
2023-01-08T10:28:44.014Z,11.90
2023-01-08T10:31:18.905Z,11.90
2023-01-08T10:33:52.378Z,12.70
2023-01-08T10:36:28.372Z,13.80
2023-01-08T10:39:04.717Z,11.60
2023-01-08T10:41:44.021Z,9.90
2023-01-08T10:44:21.126Z,11.80
2023-01-08T10:47:00.116Z,11.80
2023-01-08T10:49:46.074Z,7.60
2023-01-08T10:52:30.157Z,8.40
2023-01-08T10:55:29.132Z,8.30
2023-01-08T10:58:12.352Z,9.40
2023-01-08T11:00:45.934Z,8.90
2023-01-08T11:03:31.105Z,9.80
2023-01-08T11:06:14.981Z,9.50
2023-01-08T11:09:02.775Z,10.60
2023-01-08T11:11:40.212Z,7.50
2023-01-08T11:14:19.973Z,8.10
2023-01-08T11:16:53.594Z,8.50
2023-01-08T11:19:35.053Z,9.20
2023-01-08T11:22:22.833Z,7.70
2023-01-08T11:24:56.780Z,8.00
2023-01-08T11:27:42.827Z,8.50
2023-01-08T11:30:20.112Z,8.00
2023-01-08T11:33:19.240Z,8.40
2023-01-08T11:35:56.468Z,8.70
2023-01-08T11:38:30.491Z,10.40
2023-01-08T11:41:17.340Z,8.20
2023-01-08T11:44:24.164Z,9.80
2023-01-08T11:47:16.636Z,12.30
2023-01-08T11:50:34.909Z,11.90
2023-01-08T11:53:30.521Z,9.40
2023-01-08T11:56:38.844Z,9.80
2023-01-08T11:59:25.000Z,8.90
2023-01-08T12:02:11.565Z,8.10
2023-01-08T12:05:14.576Z,7.30
2023-01-08T12:08:11.596Z,7.20
2023-01-08T12:10:58.837Z,8.40
2023-01-08T12:13:58.877Z,9.40
2023-01-08T12:17:04.651Z,11.10
2023-01-08T12:20:18.910Z,7.80
2023-01-08T12:23:22.263Z,8.50
2023-01-08T12:26:11.494Z,10.20
2023-01-08T12:28:55.790Z,9.20
2023-01-08T12:31:57.639Z,7.00
2023-01-08T12:34:50.987Z,8.00
2023-01-08T12:37:44.867Z,9.20
2023-01-08T12:40:42.809Z,7.10
2023-01-08T12:43:50.395Z,6.80
2023-01-08T12:46:24.746Z,8.60
2023-01-08T12:48:58.911Z,10.00
2023-01-08T12:51:58.387Z,9.00
2023-01-08T12:54:54.473Z,9.40
2023-01-08T12:58:05.055Z,9.20
2023-01-08T13:00:52.460Z,8.90
2023-01-08T13:03:29.372Z,18.00
2023-01-08T13:06:17.475Z,11.00
2023-01-08T13:08:57.979Z,7.80
2023-01-08T13:11:42.636Z,11.50
2023-01-08T13:14:15.822Z,10.10
2023-01-08T13:17:02.985Z,9.00
2023-01-08T13:19:46.641Z,8.10
2023-01-08T13:22:33.656Z,7.80
2023-01-08T13:25:16.002Z,9.30
2023-01-08T13:27:49.694Z,8.60
2023-01-08T13:30:46.920Z,10.60
2023-01-08T13:33:41.890Z,8.00
2023-01-08T13:36:21.966Z,7.80
2023-01-08T13:39:24.888Z,9.00
2023-01-08T13:44:57.453Z,10.20
2023-01-08T13:47:46.960Z,6.60
2023-01-08T13:50:31.116Z,9.80
2023-01-08T13:53:07.755Z,8.60
2023-01-08T13:55:49.404Z,8.50
2023-01-08T13:58:42.564Z,9.10
2023-01-08T14:01:16.209Z,9.10
2023-01-08T14:03:50.284Z,8.70
2023-01-08T14:06:26.394Z,7.90
2023-01-08T14:09:03.590Z,9.30
2023-01-08T14:11:47.082Z,10.70
2023-01-08T14:14:22.857Z,12.20
2023-01-08T14:16:57.528Z,9.20
2023-01-08T14:19:30.893Z,9.60
2023-01-08T14:22:04.223Z,9.50
2023-01-08T14:24:37.624Z,10.40
2023-01-08T14:27:24.848Z,11.40
2023-01-08T14:29:58.945Z,10.40
2023-01-08T14:32:33.119Z,8.70
2023-01-08T14:35:06.722Z,7.80
2023-01-08T14:37:39.869Z,9.00
2023-01-08T14:40:30.495Z,8.00
2023-01-08T14:43:09.856Z,8.90
2023-01-08T14:45:49.902Z,8.80
2023-01-08T14:48:41.374Z,8.10
2023-01-08T14:51:18.066Z,10.50
2023-01-08T14:54:09.948Z,11.40
2023-01-08T14:56:42.750Z,10.80
2023-01-08T14:59:21.618Z,8.90
2023-01-08T15:02:03.492Z,10.60
2023-01-08T15:04:36.540Z,11.30
2023-01-08T15:07:24.648Z,10.20
2023-01-08T15:10:01.955Z,10.50
2023-01-08T15:12:34.766Z,9.60
2023-01-08T15:15:26.719Z,7.30
2023-01-08T15:17:59.651Z,10.00
2023-01-08T15:20:35.998Z,10.80
2023-01-08T15:23:19.670Z,8.10
2023-01-08T15:25:53.099Z,10.10
2023-01-08T15:28:28.016Z,8.70
2023-01-08T15:31:01.791Z,9.30
2023-01-08T15:33:34.478Z,8.50
2023-01-08T15:36:08.069Z,7.80
2023-01-08T15:38:42.484Z,10.00
2023-01-08T15:41:39.968Z,10.60
2023-01-08T15:44:16.315Z,10.10
2023-01-08T15:46:49.426Z,10.90
2023-01-08T15:49:22.443Z,11.70
2023-01-08T15:51:55.544Z,10.20
2023-01-08T15:54:29.276Z,9.10
2023-01-08T15:57:02.289Z,9.60
2023-01-08T15:59:37.971Z,6.90
2023-01-08T16:02:16.434Z,7.90
2023-01-08T16:04:54.657Z,8.40
2023-01-08T16:07:27.810Z,11.60
2023-01-08T16:10:01.036Z,10.60
2023-01-08T16:12:34.481Z,9.90
2023-01-08T16:15:10.641Z,9.50
2023-01-08T16:17:44.275Z,10.90
2023-01-08T16:20:18.564Z,12.10
2023-01-08T16:22:51.955Z,10.80
2023-01-08T16:25:25.272Z,11.30
2023-01-08T16:27:57.962Z,12.80
2023-01-08T16:30:31.244Z,13.60
2023-01-08T16:33:04.184Z,9.40
2023-01-08T16:35:37.079Z,9.10
2023-01-08T16:38:11.327Z,10.90
2023-01-08T16:40:44.467Z,9.00
2023-01-08T16:43:17.860Z,8.20
2023-01-08T16:45:51.656Z,8.70
2023-01-08T16:48:25.607Z,7.70
2023-01-08T16:51:06.286Z,8.70
2023-01-08T16:53:39.478Z,9.30
2023-01-08T16:56:12.885Z,9.30
2023-01-08T16:58:45.701Z,9.40
2023-01-08T17:01:18.860Z,9.10
2023-01-08T17:03:52.543Z,8.90
2023-01-08T17:06:25.512Z,8.00
2023-01-08T17:09:00.606Z,8.90
2023-01-08T17:11:34.033Z,8.70
2023-01-08T17:14:07.468Z,8.80
2023-01-08T17:16:45.926Z,9.80
2023-01-08T17:19:19.272Z,8.20
2023-01-08T17:21:53.075Z,8.30
2023-01-08T17:24:25.778Z,7.80
2023-01-08T17:27:00.419Z,5.60
2023-01-08T17:29:34.131Z,7.00
2023-01-08T17:32:07.718Z,9.50
2023-01-08T17:34:41.889Z,9.20
2023-01-08T17:37:15.442Z,9.40
2023-01-08T17:39:49.914Z,9.30
2023-01-08T17:42:29.417Z,8.90
2023-01-08T17:45:06.589Z,11.30
2023-01-08T17:47:39.796Z,9.80
2023-01-08T17:50:14.625Z,9.60
2023-01-08T17:52:47.547Z,9.20
2023-01-08T17:55:20.448Z,8.70
2023-01-08T17:57:53.785Z,8.60
2023-01-08T18:00:31.315Z,9.10
2023-01-08T18:03:05.036Z,8.50
2023-01-08T18:05:38.273Z,8.50
2023-01-08T18:08:11.099Z,9.20
2023-01-08T18:10:43.798Z,10.10
2023-01-08T18:13:16.893Z,8.20
2023-01-08T18:15:49.629Z,8.10
2023-01-08T18:18:22.690Z,11.80
2023-01-08T18:20:56.202Z,9.20
2023-01-08T18:23:29.181Z,8.50
2023-01-08T18:26:10.304Z,9.70
2023-01-08T18:28:45.501Z,9.60
2023-01-08T18:31:18.371Z,8.90
2023-01-08T18:33:54.780Z,8.40
2023-01-08T18:36:27.421Z,8.70
2023-01-08T18:39:00.667Z,7.30
2023-01-08T18:41:52.238Z,7.60
2023-01-08T18:44:25.635Z,7.80
2023-01-08T18:46:59.089Z,8.90
2023-01-08T18:49:32.297Z,7.50
2023-01-08T18:52:05.559Z,8.00
2023-01-08T18:54:38.203Z,7.60
2023-01-08T18:57:11.061Z,9.00
2023-01-08T18:59:43.941Z,8.20
2023-01-08T19:02:25.024Z,8.80
2023-01-08T19:04:58.134Z,8.70
2023-01-08T19:07:31.321Z,9.30
2023-01-08T19:10:04.208Z,9.00
2023-01-08T19:12:37.299Z,9.80
2023-01-08T19:15:10.593Z,8.90
2023-01-08T19:17:43.534Z,9.90
2023-01-08T19:20:16.512Z,8.90
2023-01-08T19:22:49.513Z,8.50
2023-01-08T19:25:22.577Z,8.40
2023-01-08T19:27:55.512Z,6.30
2023-01-08T19:30:29.150Z,9.00
2023-01-08T19:33:02.324Z,8.10
2023-01-08T19:35:39.482Z,9.40
2023-01-08T19:38:12.288Z,7.30
2023-01-08T19:40:45.439Z,7.50
2023-01-08T19:43:36.365Z,7.80
2023-01-08T19:46:10.088Z,8.60
2023-01-08T19:48:44.573Z,7.90
2023-01-08T19:51:17.605Z,7.40
2023-01-08T19:53:50.420Z,8.30
2023-01-08T19:56:23.320Z,8.90
2023-01-08T19:58:57.140Z,6.50
2023-01-08T20:01:30.990Z,6.80
2023-01-08T20:04:04.854Z,6.40
2023-01-08T20:06:38.154Z,8.00
2023-01-08T20:09:11.615Z,9.30
2023-01-08T20:11:44.412Z,8.20
2023-01-08T20:15:23.499Z,8.80
2023-01-08T20:17:56.234Z,8.80
2023-01-08T20:20:29.478Z,7.50
2023-01-08T20:23:02.420Z,8.30
2023-01-08T20:25:37.098Z,7.40
2023-01-08T20:28:10.392Z,7.50
2023-01-08T20:30:43.558Z,10.00
2023-01-08T20:33:17.832Z,9.70
2023-01-08T20:35:52.960Z,8.00
2023-01-08T20:38:26.233Z,7.30
2023-01-08T20:40:59.220Z,7.20
2023-01-08T20:43:32.891Z,6.60
2023-01-08T20:46:07.066Z,7.50
2023-01-08T20:48:46.984Z,9.70
2023-01-08T20:51:22.036Z,7.60
2023-01-08T20:53:55.189Z,8.70
2023-01-08T20:56:28.129Z,9.00
2023-01-08T20:59:03.342Z,10.60
2023-01-08T21:01:36.969Z,10.20
2023-01-08T21:04:11.226Z,9.00
2023-01-08T21:06:44.491Z,8.20
2023-01-08T21:09:18.399Z,6.70
2023-01-08T21:11:51.514Z,7.70
2023-01-08T21:14:24.594Z,8.20
2023-01-08T21:16:57.634Z,9.20
2023-01-08T21:19:30.463Z,9.00
2023-01-08T21:22:03.018Z,9.10
2023-01-08T21:24:35.738Z,8.90
2023-01-08T21:27:08.783Z,9.50
2023-01-08T21:29:41.827Z,5.90
2023-01-08T21:32:14.831Z,8.10
2023-01-08T21:34:48.198Z,10.20
2023-01-08T21:37:21.891Z,7.20
2023-01-08T21:39:54.833Z,7.30
2023-01-08T21:42:46.456Z,6.40
2023-01-08T21:45:30.153Z,10.10
2023-01-08T21:48:03.193Z,9.60
2023-01-08T21:50:36.168Z,7.90
2023-01-08T21:53:27.475Z,7.90
2023-01-08T21:56:04.114Z,9.80
2023-01-08T21:58:36.897Z,7.40
2023-01-08T22:01:12.448Z,7.60
2023-01-08T22:03:45.675Z,7.40
2023-01-08T22:06:18.928Z,7.40
2023-01-08T22:08:57.058Z,8.80
2023-01-08T22:11:29.865Z,8.50
2023-01-08T22:14:02.680Z,8.40
2023-01-08T22:16:35.594Z,9.10
2023-01-08T22:19:09.027Z,9.90
2023-01-08T22:21:42.814Z,9.20
2023-01-08T22:24:15.794Z,7.70
2023-01-08T22:26:51.022Z,7.50
2023-01-08T22:29:23.824Z,9.90
2023-01-08T22:31:56.753Z,7.30
2023-01-08T22:34:32.493Z,7.10
2023-01-08T22:37:05.696Z,6.40
2023-01-08T22:39:38.620Z,9.50
2023-01-08T22:42:11.818Z,8.50
2023-01-08T22:44:44.707Z,8.90
2023-01-08T22:47:17.909Z,8.30
2023-01-08T22:49:51.580Z,8.80
2023-01-08T22:52:24.886Z,10.40
2023-01-08T22:54:58.495Z,8.90
2023-01-08T22:57:31.037Z,8.40
2023-01-08T23:00:04.800Z,9.10
2023-01-08T23:02:38.815Z,8.70
2023-01-08T23:05:11.797Z,8.30
2023-01-08T23:07:44.879Z,9.20
2023-01-08T23:10:17.689Z,8.80
2023-01-08T23:12:51.501Z,8.70
2023-01-08T23:15:24.999Z,8.10
2023-01-08T23:17:58.096Z,8.60
2023-01-08T23:20:31.037Z,7.90
2023-01-08T23:23:03.901Z,8.50
2023-01-08T23:25:37.203Z,9.20
2023-01-08T23:28:10.424Z,7.70
2023-01-08T23:30:43.957Z,8.80
2023-01-08T23:33:16.978Z,7.50
2023-01-08T23:35:49.777Z,8.70
2023-01-08T23:38:22.722Z,8.40
2023-01-08T23:40:55.503Z,8.40
2023-01-08T23:43:28.539Z,10.10
2023-01-08T23:46:05.428Z,8.40
2023-01-08T23:48:38.590Z,8.30
2023-01-08T23:51:11.490Z,10.10
2023-01-08T23:53:44.567Z,8.60
2023-01-08T23:56:17.543Z,8.20
2023-01-08T23:58:51.291Z,10.30
